KSBY

Salisbury-Ocean City Wicomico Regional Airport

Salisbury, Maryland, USA
METAR KSBY 210354Z AUTO 00000KT 10SM CLR M01/M04 A3009 RMK AO2 SLP193 T10061039
Observed Flight Rules
Jan-21 @ 03:54 UTC (58 minutes ago) Visual Flight Rules
Wind Visibility Clouds
Calm 10 miles
  • Clear skies
Temperatures Readings
Current -1°C / 30°F
Dewpoint -4°C / 25°F
Humidity 80%
Altimeter 30.09" Hg
Pressure 1019.3 hPa
Elevation 19
METAR KSBY 210354Z AUTO 00000KT 10SM CLR M01/M04 A3009 RMK AO2 SLP193 T10061039
Observed Flight Rules
Jan-21 @ 03:54 UTC
(58 minutes ago)
VFR
Wind Visibility
Calm 10 miles
Clouds
  • Clear skies
Temperature Dewpoint
-1°C / 30°F -4°C / 25°F
Humidity Altimeter Pressure
80% 30.09" Hg 1019.3 hPa